Time;durP1;ratioP1;P1;durP2;ratioP2;P2;SDS_P1;SDS_P2;PMS_P1;PMS_P2;Temp;Humidity;BMP_temperature;BMP_pressure;BME280_temperature;BME280_humidity;BME280_pressure;Samples;Min_cycle;Max_cycle;Signal;HPM_P1;HPM_P2
2023/01/29 00:00:50;;;;;;;28.90;12.50;;;;;;;;;;4949419;29;20059;-70
2023/01/29 00:03:15;;;;;;;31.23;13.18;;;;;;;;;;4963922;28;20045;-70
2023/01/29 00:05:41;;;;;;;35.40;14.15;;;;;;;;;;4965081;28;20050;-70
2023/01/29 00:08:06;;;;;;;30.88;13.38;;;;;;;;;;4968959;28;20031;-70
2023/01/29 00:10:32;;;;;;;39.58;15.10;;;;;;;;;;4968500;28;20047;-70
2023/01/29 00:12:57;;;;;;;34.30;13.73;;;;;;;;;;4967719;28;20039;-70
2023/01/29 00:15:23;;;;;;;27.95;12.15;;;;;;;;;;4968223;28;20042;-70
2023/01/29 00:17:48;;;;;;;32.83;12.68;;;;;;;;;;4965007;28;20035;-70
2023/01/29 00:20:14;;;;;;;35.70;14.70;;;;;;;;;;4948344;28;20119;-70
2023/01/29 00:22:39;;;;;;;33.15;14.13;;;;;;;;;;4947891;29;20023;-70
2023/01/29 00:25:05;;;;;;;32.92;13.90;;;;;;;;;;4948762;28;20149;-70
2023/01/29 00:27:30;;;;;;;35.22;13.82;;;;;;;;;;4952565;28;20043;-70
2023/01/29 00:30:29;;;;;;;32.20;12.77;;;;;;;;;;4948333;29;20031;-70
2023/01/29 00:32:47;;;;;;;37.20;14.20;;;;;;;;;;4944948;28;20031;-70
2023/01/29 00:35:13;;;;;;;34.00;12.73;;;;;;;;;;4950927;28;20063;-70
2023/01/29 00:37:38;;;;;;;30.55;13.38;;;;;;;;;;4946686;28;20019;-70
2023/01/29 00:40:04;;;;;;;26.50;11.98;;;;;;;;;;4949094;28;20082;-70
2023/01/29 00:45:14;;;;;;;29.38;12.60;;;;;;;;;;4967751;28;20102;-70
2023/01/29 00:47:39;;;;;;;24.73;11.20;;;;;;;;;;4967429;28;20046;-70
2023/01/29 00:50:08;;;;;;;30.08;12.88;;;;;;;;;;4968438;28;20027;-70
2023/01/29 00:52:35;;;;;;;30.98;12.27;;;;;;;;;;4972003;28;20057;-70
2023/01/29 00:55:01;;;;;;;33.00;12.85;;;;;;;;;;4985470;28;20053;-70
2023/01/29 00:57:29;;;;;;;32.70;13.23;;;;;;;;;;4958665;28;20142;-70
2023/01/29 00:59:55;;;;;;;31.40;13.65;;;;;;;;;;4966993;28;20114;-70
2023/01/29 01:05:06;;;;;;;33.17;12.90;;;;;;;;;;4968040;28;20125;-70
2023/01/29 01:07:32;;;;;;;25.13;11.95;;;;;;;;;;4967403;28;20500;-70
2023/01/29 01:12:41;;;;;;;24.92;12.52;;;;;;;;;;4967977;28;20065;-70
2023/01/29 01:15:08;;;;;;;29.73;14.25;;;;;;;;;;4966928;28;20035;-70
2023/01/29 01:17:33;;;;;;;29.63;12.45;;;;;;;;;;4947191;28;20093;-70
2023/01/29 01:19:59;;;;;;;26.23;10.35;;;;;;;;;;4950285;28;20109;-70
2023/01/29 01:22:24;;;;;;;38.50;12.40;;;;;;;;;;4966446;28;20042;-70
2023/01/29 01:24:49;;;;;;;26.45;10.38;;;;;;;;;;4966501;28;20178;-70
2023/01/29 01:27:15;;;;;;;31.13;11.65;;;;;;;;;;4967318;28;20042;-70
2023/01/29 01:29:40;;;;;;;25.75;12.52;;;;;;;;;;4967137;28;20130;-70
2023/01/29 01:32:06;;;;;;;33.10;12.57;;;;;;;;;;4967872;28;20027;-70
2023/01/29 01:34:31;;;;;;;34.80;12.60;;;;;;;;;;4966729;28;20909;-70
2023/01/29 01:36:56;;;;;;;23.63;10.20;;;;;;;;;;4951827;28;20419;-70
2023/01/29 01:39:23;;;;;;;24.80;9.90;;;;;;;;;;4970706;28;20102;-70
2023/01/29 01:41:48;;;;;;;22.30;11.25;;;;;;;;;;4971397;28;20562;-70
2023/01/29 01:44:50;;;;;;;24.92;10.50;;;;;;;;;;4970980;28;20169;-70
2023/01/29 01:47:17;;;;;;;22.25;9.38;;;;;;;;;;4965795;28;20049;-70
2023/01/29 01:49:43;;;;;;;31.60;10.45;;;;;;;;;;4971205;28;20026;-70
2023/01/29 01:52:10;;;;;;;33.33;12.52;;;;;;;;;;4971897;28;20573;-70
2023/01/29 01:54:35;;;;;;;22.98;9.98;;;;;;;;;;4990237;28;20038;-70
2023/01/29 01:57:08;;;;;;;23.40;11.00;;;;;;;;;;4977778;28;20034;-70
2023/01/29 01:59:39;;;;;;;27.27;10.15;;;;;;;;;;4968413;28;20146;-70
2023/01/29 02:10:22;;;;;;;21.88;7.97;;;;;;;;;;4963258;28;20057;-70
2023/01/29 02:12:48;;;;;;;21.63;9.75;;;;;;;;;;4969625;28;20074;-70
2023/01/29 02:15:13;;;;;;;24.25;10.23;;;;;;;;;;4970457;28;20035;-70
2023/01/29 02:17:38;;;;;;;27.10;11.55;;;;;;;;;;4967670;28;20034;-70
2023/01/29 02:20:07;;;;;;;26.00;10.20;;;;;;;;;;4949797;29;20027;-70
2023/01/29 02:23:02;;;;;;;17.50;8.60;;;;;;;;;;4950946;28;20039;-70
2023/01/29 02:25:46;;;;;;;26.48;10.65;;;;;;;;;;4946636;28;20038;-70
2023/01/29 02:28:44;;;;;;;24.60;11.07;;;;;;;;;;4963913;28;20043;-70
2023/01/29 02:31:22;;;;;;;27.48;10.45;;;;;;;;;;4970012;28;20183;-70
2023/01/29 02:33:50;;;;;;;25.05;10.35;;;;;;;;;;4967867;28;20066;-70
2023/01/29 02:36:39;;;;;;;22.17;8.70;;;;;;;;;;4970036;28;20041;-70
2023/01/29 02:39:16;;;;;;;22.05;9.63;;;;;;;;;;4969251;28;20065;-70
2023/01/29 02:42:00;;;;;;;21.52;10.73;;;;;;;;;;4969791;28;20049;-70
2023/01/29 02:44:31;;;;;;;28.20;9.88;;;;;;;;;;4968681;28;20037;-70
2023/01/29 02:47:02;;;;;;;18.98;9.10;;;;;;;;;;4983414;28;20038;-70
2023/01/29 02:49:34;;;;;;;26.67;11.50;;;;;;;;;;4970096;28;20030;-70
2023/01/29 02:52:03;;;;;;;18.00;9.10;;;;;;;;;;4988843;28;20527;-70
2023/01/29 02:55:01;;;;;;;22.55;11.48;;;;;;;;;;4932985;29;20043;-70
2023/01/29 02:57:33;;;;;;;31.23;9.63;;;;;;;;;;4950501;28;20031;-70
2023/01/29 03:00:31;;;;;;;26.10;10.68;;;;;;;;;;4985743;28;20038;-70
2023/01/29 03:03:09;;;;;;;27.15;11.40;;;;;;;;;;4973219;28;20039;-70
2023/01/29 03:06:05;;;;;;;23.10;11.13;;;;;;;;;;4968407;28;20030;-70
2023/01/29 03:08:44;;;;;;;19.50;9.77;;;;;;;;;;4967415;28;20459;-70
2023/01/29 03:11:14;;;;;;;22.70;10.88;;;;;;;;;;4968640;28;20026;-70
2023/01/29 03:13:51;;;;;;;20.17;9.02;;;;;;;;;;4968652;28;20190;-70
2023/01/29 03:16:31;;;;;;;18.90;9.68;;;;;;;;;;4969292;28;20411;-70
2023/01/29 03:19:17;;;;;;;23.38;10.40;;;;;;;;;;4967314;28;20038;-70
2023/01/29 03:21:58;;;;;;;22.38;9.32;;;;;;;;;;4951549;28;20089;-70
2023/01/29 03:32:50;;;;;;;28.98;10.57;;;;;;;;;;4968539;28;20054;-70
2023/01/29 03:35:35;;;;;;;23.23;10.10;;;;;;;;;;4971873;28;20077;-70
2023/01/29 03:38:02;;;;;;;20.17;9.57;;;;;;;;;;4988177;28;20575;-70
2023/01/29 03:40:42;;;;;;;24.85;10.30;;;;;;;;;;4988621;28;20034;-70
2023/01/29 03:43:19;;;;;;;25.95;12.25;;;;;;;;;;4988140;28;20109;-70
2023/01/29 03:46:02;;;;;;;19.65;9.60;;;;;;;;;;4987446;28;20427;-70
2023/01/29 03:48:31;;;;;;;24.13;10.38;;;;;;;;;;4971200;28;20094;-69
2023/01/29 03:51:14;;;;;;;29.42;11.02;;;;;;;;;;4968571;28;20109;-70
2023/01/29 03:53:39;;;;;;;26.08;11.18;;;;;;;;;;4958889;28;20057;-70
2023/01/29 03:56:19;;;;;;;26.25;11.15;;;;;;;;;;4967694;28;20424;-70
2023/01/29 03:59:14;;;;;;;32.88;13.07;;;;;;;;;;4960764;28;20034;-70
2023/01/29 04:01:47;;;;;;;26.90;10.50;;;;;;;;;;4948450;28;20038;-70
2023/01/29 04:04:23;;;;;;;29.50;12.35;;;;;;;;;;4967825;28;20051;-70
2023/01/29 04:06:51;;;;;;;21.75;10.93;;;;;;;;;;4968646;28;20031;-70
2023/01/29 04:10:01;;;;;;;33.00;12.77;;;;;;;;;;4950527;28;20069;-70
2023/01/29 04:12:34;;;;;;;32.10;12.98;;;;;;;;;;4906812;29;20079;-70
2023/01/29 04:15:01;;;;;;;27.52;13.00;;;;;;;;;;4907596;29;20113;-70
2023/01/29 04:17:38;;;;;;;31.30;13.98;;;;;;;;;;4929794;29;20094;-70
2023/01/29 04:20:04;;;;;;;25.60;10.68;;;;;;;;;;4953705;28;20547;-70
2023/01/29 04:22:35;;;;;;;37.50;13.98;;;;;;;;;;4962162;28;20063;-70
2023/01/29 04:25:08;;;;;;;28.20;12.45;;;;;;;;;;4948023;29;20460;-70
2023/01/29 04:27:50;;;;;;;29.00;13.50;;;;;;;;;;4948435;29;20042;-70
2023/01/29 04:30:25;;;;;;;23.90;11.35;;;;;;;;;;4931230;29;20079;-70
2023/01/29 04:33:03;;;;;;;35.70;12.18;;;;;;;;;;4930967;29;20423;-70
2023/01/29 04:35:28;;;;;;;27.33;12.50;;;;;;;;;;4931383;28;20031;-70
2023/01/29 04:38:35;;;;;;;33.00;13.13;;;;;;;;;;4957032;28;20485;-70
2023/01/29 04:41:06;;;;;;;18.83;9.02;;;;;;;;;;4946806;29;20049;-70
2023/01/29 04:43:48;;;;;;;26.42;11.68;;;;;;;;;;4948403;29;20039;-70
2023/01/29 04:46:28;;;;;;;26.88;12.30;;;;;;;;;;4948147;29;20380;-70
2023/01/29 04:49:04;;;;;;;27.80;11.95;;;;;;;;;;4948255;28;20527;-71
2023/01/29 04:51:35;;;;;;;25.30;11.52;;;;;;;;;;4946721;28;20043;-70
2023/01/29 04:54:11;;;;;;;22.65;10.07;;;;;;;;;;4980445;28;20081;-70
2023/01/29 04:57:01;;;;;;;30.02;11.68;;;;;;;;;;4987137;28;20040;-70
2023/01/29 04:59:35;;;;;;;30.83;11.65;;;;;;;;;;4972128;28;20034;-71
2023/01/29 05:02:01;;;;;;;30.58;12.13;;;;;;;;;;4964914;28;20041;-70
2023/01/29 05:04:31;;;;;;;30.92;10.85;;;;;;;;;;4966461;28;20038;-71
2023/01/29 05:06:57;;;;;;;35.05;12.65;;;;;;;;;;4965714;28;20038;-70
2023/01/29 05:09:24;;;;;;;36.28;10.57;;;;;;;;;;4966916;28;20042;-70
2023/01/29 05:11:50;;;;;;;37.70;13.60;;;;;;;;;;4969269;28;20035;-70
2023/01/29 05:14:18;;;;;;;30.95;13.80;;;;;;;;;;4971527;28;20023;-71
2023/01/29 05:16:52;;;;;;;35.88;14.18;;;;;;;;;;4971637;28;20023;-71
2023/01/29 05:19:17;;;;;;;32.22;14.68;;;;;;;;;;4971638;28;20177;-71
2023/01/29 05:21:48;;;;;;;32.95;13.52;;;;;;;;;;4971060;28;20137;-71
2023/01/29 05:24:16;;;;;;;24.58;10.90;;;;;;;;;;4970932;28;20573;-71
2023/01/29 05:29:28;;;;;;;31.00;13.77;;;;;;;;;;4971180;28;20041;-71
2023/01/29 05:31:54;;;;;;;34.95;12.90;;;;;;;;;;4971451;28;20431;-71
2023/01/29 05:34:19;;;;;;;33.00;13.70;;;;;;;;;;4964958;28;20049;-71
2023/01/29 05:36:45;;;;;;;35.63;13.32;;;;;;;;;;4968454;28;20046;-71
2023/01/29 05:39:10;;;;;;;37.10;13.95;;;;;;;;;;4971042;28;20644;-71
2023/01/29 05:41:35;;;;;;;33.05;13.02;;;;;;;;;;4971205;28;20046;-71
2023/01/29 05:44:01;;;;;;;27.73;10.98;;;;;;;;;;4969259;28;20593;-71
2023/01/29 05:46:26;;;;;;;26.63;11.10;;;;;;;;;;4970519;28;20047;-71
2023/01/29 05:48:52;;;;;;;20.30;9.52;;;;;;;;;;4970882;28;20034;-71
2023/01/29 05:51:17;;;;;;;33.58;13.93;;;;;;;;;;4966203;28;20112;-71
2023/01/29 05:53:42;;;;;;;20.33;9.98;;;;;;;;;;4982994;28;20057;-71
2023/01/29 05:56:08;;;;;;;27.63;11.73;;;;;;;;;;4990622;28;20627;-71
2023/01/29 05:58:33;;;;;;;22.35;9.80;;;;;;;;;;4990224;28;20113;-70
2023/01/29 06:01:16;;;;;;;31.13;11.85;;;;;;;;;;4990080;28;20031;-70
2023/01/29 06:03:42;;;;;;;17.67;9.77;;;;;;;;;;4951450;28;20114;-71
2023/01/29 06:06:08;;;;;;;22.90;12.65;;;;;;;;;;4933435;29;20116;-71
2023/01/29 06:08:33;;;;;;;23.83;10.05;;;;;;;;;;4950999;28;20035;-71
2023/01/29 06:10:59;;;;;;;26.90;11.88;;;;;;;;;;4951748;28;20404;-70
2023/01/29 06:13:24;;;;;;;20.85;12.27;;;;;;;;;;4950952;28;20035;-71
2023/01/29 06:15:49;;;;;;;36.08;14.32;;;;;;;;;;4950830;28;20114;-71
2023/01/29 06:18:15;;;;;;;25.83;11.10;;;;;;;;;;4951010;28;20043;-71
2023/01/29 06:20:40;;;;;;;36.92;14.40;;;;;;;;;;4951141;28;20417;-71
2023/01/29 06:23:05;;;;;;;32.20;13.20;;;;;;;;;;4957410;28;20034;-71
2023/01/29 06:25:31;;;;;;;32.95;13.70;;;;;;;;;;4949745;28;20035;-71
2023/01/29 06:27:56;;;;;;;36.20;15.27;;;;;;;;;;4950906;28;20412;-71
2023/01/29 06:30:21;;;;;;;26.25;12.18;;;;;;;;;;4933002;29;20039;-71
2023/01/29 06:32:47;;;;;;;30.73;13.27;;;;;;;;;;4951008;29;20098;-71
2023/01/29 06:35:12;;;;;;;38.15;13.45;;;;;;;;;;4962072;28;20046;-71
2023/01/29 06:37:37;;;;;;;34.00;15.60;;;;;;;;;;4966129;28;20031;-71
2023/01/29 06:40:03;;;;;;;35.58;13.88;;;;;;;;;;4967396;28;20039;-71
2023/01/29 06:42:28;;;;;;;39.70;15.10;;;;;;;;;;4964377;28;20418;-71
2023/01/29 06:44:54;;;;;;;42.00;15.45;;;;;;;;;;4963832;28;20030;-71
2023/01/29 06:47:20;;;;;;;35.88;14.30;;;;;;;;;;4951501;28;20090;-71
2023/01/29 06:49:45;;;;;;;38.63;14.55;;;;;;;;;;4950802;29;20373;-71
2023/01/29 06:52:10;;;;;;;35.63;14.45;;;;;;;;;;4953198;28;20028;-70
2023/01/29 06:54:35;;;;;;;31.67;12.52;;;;;;;;;;4989127;28;20125;-70
2023/01/29 06:57:01;;;;;;;38.08;11.85;;;;;;;;;;4988428;28;20065;-71
2023/01/29 06:59:26;;;;;;;17.08;8.13;;;;;;;;;;4988802;28;20042;-71
2023/01/29 07:01:51;;;;;;;21.77;7.57;;;;;;;;;;4982808;28;20073;-71
2023/01/29 07:04:17;;;;;;;17.33;7.97;;;;;;;;;;4968486;28;20031;-71
2023/01/29 07:06:42;;;;;;;27.45;9.05;;;;;;;;;;4969783;28;20046;-71
2023/01/29 07:09:11;;;;;;;33.90;12.65;;;;;;;;;;4969121;28;20412;-71
2023/01/29 07:11:36;;;;;;;25.77;12.35;;;;;;;;;;4969458;28;20046;-71
2023/01/29 07:14:02;;;;;;;33.28;14.43;;;;;;;;;;4969479;28;20038;-71
2023/01/29 07:16:27;;;;;;;23.95;10.45;;;;;;;;;;4951626;28;20038;-71
2023/01/29 07:18:53;;;;;;;26.70;11.45;;;;;;;;;;4968414;28;20035;-70
2023/01/29 07:21:18;;;;;;;27.38;11.35;;;;;;;;;;4952154;28;20046;-71
2023/01/29 07:23:43;;;;;;;32.20;14.20;;;;;;;;;;4968727;28;20551;-71
2023/01/29 07:26:10;;;;;;;34.92;13.63;;;;;;;;;;4967662;28;20085;-71
2023/01/29 07:28:37;;;;;;;35.00;14.63;;;;;;;;;;4967179;28;20019;-70
2023/01/29 07:31:02;;;;;;;37.08;14.35;;;;;;;;;;4983750;28;20589;-70
2023/01/29 07:33:28;;;;;;;36.63;14.00;;;;;;;;;;4968115;28;20035;-71
2023/01/29 07:35:53;;;;;;;45.10;16.85;;;;;;;;;;4949087;28;20038;-71
2023/01/29 07:38:19;;;;;;;35.78;13.25;;;;;;;;;;4968780;28;20150;-71
2023/01/29 07:40:44;;;;;;;31.48;13.88;;;;;;;;;;4969340;28;20058;-71
2023/01/29 07:43:09;;;;;;;28.70;11.98;;;;;;;;;;4968300;28;20077;-71
2023/01/29 07:45:36;;;;;;;37.05;14.10;;;;;;;;;;4950758;28;20089;-71
2023/01/29 07:48:03;;;;;;;24.75;10.45;;;;;;;;;;4967996;28;20424;-71
2023/01/29 07:50:30;;;;;;;32.38;12.43;;;;;;;;;;4962792;28;20035;-71
2023/01/29 07:52:55;;;;;;;26.80;11.93;;;;;;;;;;4958103;28;20026;-71
2023/01/29 07:55:20;;;;;;;31.48;12.60;;;;;;;;;;4987786;28;20040;-71
2023/01/29 07:57:46;;;;;;;34.22;13.27;;;;;;;;;;4987151;28;20049;-71
2023/01/29 08:00:13;;;;;;;22.80;10.68;;;;;;;;;;4988431;28;20038;-71
2023/01/29 08:02:39;;;;;;;20.23;9.65;;;;;;;;;;4970676;28;20027;-71
2023/01/29 08:05:05;;;;;;;36.65;16.33;;;;;;;;;;4949760;28;20030;-70
2023/01/29 08:07:30;;;;;;;28.95;12.90;;;;;;;;;;4968499;28;20039;-70
2023/01/29 08:09:55;;;;;;;37.67;14.70;;;;;;;;;;4967751;28;20045;-71
2023/01/29 08:12:21;;;;;;;29.58;13.55;;;;;;;;;;4968135;28;20085;-71
2023/01/29 08:14:46;;;;;;;30.25;12.85;;;;;;;;;;4960680;28;20066;-71
2023/01/29 08:17:12;;;;;;;38.08;13.82;;;;;;;;;;4967750;28;20460;-71
2023/01/29 08:19:38;;;;;;;40.33;13.73;;;;;;;;;;4966916;28;20033;-71
2023/01/29 08:22:04;;;;;;;30.83;12.32;;;;;;;;;;4966831;28;20034;-71
2023/01/29 08:24:29;;;;;;;41.53;14.45;;;;;;;;;;4967919;28;20480;-71
2023/01/29 08:26:55;;;;;;;35.42;10.77;;;;;;;;;;4982577;28;20049;-71
2023/01/29 08:29:20;;;;;;;32.45;11.77;;;;;;;;;;4965593;28;20683;-71
2023/01/29 08:31:45;;;;;;;28.75;11.82;;;;;;;;;;4981297;28;20034;-71
2023/01/29 08:34:11;;;;;;;46.55;13.18;;;;;;;;;;4967313;28;20046;-71
2023/01/29 08:36:36;;;;;;;21.92;9.55;;;;;;;;;;4967273;28;20039;-71
2023/01/29 08:39:02;;;;;;;28.88;11.95;;;;;;;;;;4967344;28;20516;-71
2023/01/29 08:41:27;;;;;;;7.18;3.80;;;;;;;;;;4966733;28;20455;-70
2023/01/29 08:43:52;;;;;;;18.33;8.13;;;;;;;;;;4966279;28;20030;-70
2023/01/29 08:46:17;;;;;;;27.38;8.85;;;;;;;;;;4952713;28;20051;-71
2023/01/29 08:48:43;;;;;;;9.60;6.28;;;;;;;;;;4966336;28;20128;-71
2023/01/29 08:51:08;;;;;;;14.00;6.57;;;;;;;;;;4964009;28;20034;-71
2023/01/29 08:53:33;;;;;;;30.80;12.68;;;;;;;;;;4959650;28;20519;-71
2023/01/29 08:55:59;;;;;;;22.27;9.48;;;;;;;;;;4960326;28;20023;-71
2023/01/29 08:58:24;;;;;;;32.95;13.82;;;;;;;;;;4964848;28;20782;-71
2023/01/29 09:00:49;;;;;;;20.60;8.55;;;;;;;;;;4966183;28;20035;-70
2023/01/29 09:03:15;;;;;;;36.65;13.80;;;;;;;;;;4961920;28;20027;-71
2023/01/29 09:05:40;;;;;;;38.50;14.00;;;;;;;;;;4956905;28;20039;-71
2023/01/29 09:08:07;;;;;;;26.27;10.80;;;;;;;;;;4964572;28;20019;-71
2023/01/29 09:10:33;;;;;;;39.85;16.23;;;;;;;;;;4965085;28;20076;-71
2023/01/29 09:12:59;;;;;;;29.20;13.35;;;;;;;;;;4966633;28;20035;-71
2023/01/29 09:15:24;;;;;;;32.30;12.73;;;;;;;;;;4962167;28;20118;-70
2023/01/29 09:17:49;;;;;;;33.60;12.80;;;;;;;;;;4965080;28;20039;-71
2023/01/29 09:20:16;;;;;;;44.38;14.88;;;;;;;;;;4967143;28;20027;-71
2023/01/29 09:22:41;;;;;;;41.13;13.93;;;;;;;;;;4965612;28;20031;-71
2023/01/29 09:25:07;;;;;;;30.38;14.27;;;;;;;;;;4963020;28;20050;-71
2023/01/29 09:27:33;;;;;;;36.17;13.85;;;;;;;;;;4963287;28;20093;-71
2023/01/29 09:29:58;;;;;;;30.38;10.90;;;;;;;;;;4960283;28;20629;-71
2023/01/29 09:32:24;;;;;;;32.47;11.48;;;;;;;;;;4966350;28;20127;-71
2023/01/29 09:34:49;;;;;;;33.08;12.80;;;;;;;;;;4965601;28;20030;-72
2023/01/29 09:37:16;;;;;;;36.00;12.60;;;;;;;;;;4964148;28;20031;-71
2023/01/29 09:39:42;;;;;;;18.45;7.53;;;;;;;;;;4963328;28;20053;-71
2023/01/29 09:42:17;;;;;;;32.92;12.52;;;;;;;;;;4959238;28;20034;-70
2023/01/29 09:44:45;;;;;;;28.38;10.52;;;;;;;;;;4961322;28;20189;-71
2023/01/29 09:47:14;;;;;;;34.42;13.07;;;;;;;;;;4962173;28;20055;-71
2023/01/29 09:49:48;;;;;;;37.65;13.55;;;;;;;;;;4969215;28;20031;-71
2023/01/29 09:52:20;;;;;;;38.05;14.70;;;;;;;;;;4960666;28;20047;-71
2023/01/29 09:54:53;;;;;;;31.50;12.13;;;;;;;;;;4961560;28;20534;-71
2023/01/29 09:57:26;;;;;;;41.17;13.88;;;;;;;;;;4961203;28;20046;-71
2023/01/29 09:59:51;;;;;;;15.77;7.28;;;;;;;;;;4968823;28;20093;-71
2023/01/29 10:03:11;;;;;;;29.88;10.75;;;;;;;;;;4968897;28;20027;-71
2023/01/29 10:06:04;;;;;;;34.13;12.43;;;;;;;;;;4908266;29;20050;-71
2023/01/29 10:08:58;;;;;;;31.95;13.65;;;;;;;;;;4956416;28;20137;-70
2023/01/29 10:11:31;;;;;;;26.58;9.25;;;;;;;;;;4966672;28;20042;-70
2023/01/29 10:14:18;;;;;;;24.92;11.45;;;;;;;;;;4966897;28;20142;-71
2023/01/29 10:16:56;;;;;;;23.38;10.10;;;;;;;;;;4963511;28;20045;-70
2023/01/29 10:19:45;;;;;;;37.60;14.27;;;;;;;;;;4943826;28;20074;-70
2023/01/29 10:22:13;;;;;;;38.35;14.18;;;;;;;;;;4944064;28;20596;-70
2023/01/29 10:24:56;;;;;;;33.35;13.05;;;;;;;;;;4954208;28;20718;-70
2023/01/29 10:27:22;;;;;;;35.63;13.90;;;;;;;;;;4949126;28;20051;-71
2023/01/29 10:29:51;;;;;;;26.40;11.50;;;;;;;;;;4948743;28;20120;-71
2023/01/29 10:32:20;;;;;;;32.08;12.85;;;;;;;;;;4953678;28;20027;-71
2023/01/29 10:34:56;;;;;;;34.70;13.02;;;;;;;;;;4964813;28;20031;-71
2023/01/29 10:37:25;;;;;;;38.40;13.82;;;;;;;;;;4964876;28;20087;-71
2023/01/29 10:39:51;;;;;;;27.95;10.65;;;;;;;;;;4968275;28;20050;-71
2023/01/29 10:42:17;;;;;;;14.52;6.32;;;;;;;;;;4969770;28;20039;-71
2023/01/29 10:44:52;;;;;;;29.95;12.75;;;;;;;;;;4967938;28;20043;-71
2023/01/29 10:47:22;;;;;;;40.40;15.23;;;;;;;;;;4961280;28;20073;-71
2023/01/29 10:50:04;;;;;;;36.30;14.43;;;;;;;;;;4960825;28;20027;-71
2023/01/29 10:52:32;;;;;;;20.80;8.43;;;;;;;;;;4953241;28;20046;-70
2023/01/29 10:55:27;;;;;;;26.58;11.65;;;;;;;;;;4987608;28;20038;-71
2023/01/29 10:58:16;;;;;;;23.27;10.82;;;;;;;;;;4986440;28;20662;-71
2023/01/29 11:00:41;;;;;;;31.73;11.75;;;;;;;;;;4968107;28;20039;-71
2023/01/29 11:03:15;;;;;;;33.38;12.80;;;;;;;;;;4965364;28;20101;-70
2023/01/29 11:05:47;;;;;;;;;;;;;;;;;;4946691;28;20046;-70
2023/01/29 11:08:15;;;;;;;24.08;9.85;;;;;;;;;;4981988;28;19914;-70
2023/01/29 11:10:53;;;;;;;36.42;13.23;;;;;;;;;;4967914;28;20515;-70
2023/01/29 11:13:21;;;;;;;30.52;13.63;;;;;;;;;;4967654;28;20118;-70
2023/01/29 11:15:51;;;;;;;28.60;12.05;;;;;;;;;;4967766;28;20631;-71
2023/01/29 11:18:16;;;;;;;39.42;13.57;;;;;;;;;;4966959;28;20101;-71
2023/01/29 11:20:44;;;;;;;28.33;12.02;;;;;;;;;;4967296;28;20039;-71
2023/01/29 11:23:25;;;;;;;30.15;11.93;;;;;;;;;;4967472;28;20815;-71
2023/01/29 11:25:52;;;;;;;27.90;10.30;;;;;;;;;;4966906;28;20082;-71
2023/01/29 11:28:35;;;;;;;33.30;12.85;;;;;;;;;;4967031;28;20038;-71
2023/01/29 11:31:01;;;;;;;34.53;13.90;;;;;;;;;;4967107;28;20039;-71
2023/01/29 11:33:27;;;;;;;29.52;14.00;;;;;;;;;;4968102;28;20035;-71
2023/01/29 11:35:54;;;;;;;32.30;11.45;;;;;;;;;;4967712;28;20034;-71
2023/01/29 11:38:27;;;;;;;34.72;12.70;;;;;;;;;;4965824;28;20428;-71
2023/01/29 11:41:03;;;;;;;;;;;;;;;;;;4967370;28;20062;-71
2023/01/29 11:43:30;;;;;;;23.20;9.95;;;;;;;;;;4967772;28;20000;-71
2023/01/29 11:47:58;;;;;;;23.70;9.93;;;;;;;;;;5117239;27;20458;-72
2023/01/29 11:50:28;;;;;;;33.78;13.70;;;;;;;;;;5097950;28;20028;-72
2023/01/29 11:52:53;;;;;;;31.25;11.95;;;;;;;;;;5082598;28;20020;-72
2023/01/29 11:55:30;;;;;;;33.40;13.70;;;;;;;;;;5080880;28;20065;-72
2023/01/29 11:58:17;;;;;;;36.88;14.88;;;;;;;;;;5076972;28;20051;-71
2023/01/29 12:00:46;;;;;;;30.05;12.57;;;;;;;;;;5080254;28;20088;-71
2023/01/29 12:03:21;;;;;;;29.85;11.65;;;;;;;;;;5075765;28;20032;-72
2023/01/29 12:06:02;;;;;;;29.50;10.38;;;;;;;;;;5077339;28;20565;-72
2023/01/29 12:08:34;;;;;;;23.95;7.13;;;;;;;;;;5075871;28;20045;-72
2023/01/29 12:11:28;;;;;;;27.73;11.47;;;;;;;;;;5082635;28;20046;-72
2023/01/29 12:13:56;;;;;;;23.30;10.77;;;;;;;;;;5073780;28;20032;-72
2023/01/29 12:16:28;;;;;;;35.97;13.85;;;;;;;;;;5075663;28;20032;-73
2023/01/29 12:19:28;;;;;;;27.10;11.63;;;;;;;;;;5075875;28;20043;-73
2023/01/29 12:22:05;;;;;;;32.80;12.82;;;;;;;;;;5065684;28;20697;-69
2023/01/29 12:24:34;;;;;;;9.88;5.10;;;;;;;;;;5077650;28;20036;-70
2023/01/29 12:27:07;;;;;;;27.98;10.70;;;;;;;;;;5072842;28;20037;-70
2023/01/29 12:29:55;;;;;;;12.85;5.95;;;;;;;;;;5074842;28;20403;-70
2023/01/29 12:32:31;;;;;;;18.50;7.15;;;;;;;;;;5071306;28;20409;-70
2023/01/29 12:35:03;;;;;;;19.58;9.13;;;;;;;;;;5062189;28;20108;-70
2023/01/29 12:37:40;;;;;;;22.83;10.18;;;;;;;;;;5064241;28;20481;-70
2023/01/29 12:40:17;;;;;;;16.73;8.18;;;;;;;;;;5077103;28;20043;-69
2023/01/29 12:42:47;;;;;;;20.67;9.40;;;;;;;;;;5074150;28;20036;-70
2023/01/29 12:45:22;;;;;;;26.67;10.65;;;;;;;;;;5069697;28;20040;-70
2023/01/29 12:47:54;;;;;;;29.80;10.80;;;;;;;;;;5076078;28;20045;-70
2023/01/29 12:50:25;;;;;;;29.00;11.20;;;;;;;;;;5061108;28;20434;-70
2023/01/29 12:53:23;;;;;;;26.75;10.85;;;;;;;;;;5061615;28;20086;-70
2023/01/29 12:55:54;;;;;;;18.92;8.05;;;;;;;;;;5077622;28;20047;-70
2023/01/29 12:58:22;;;;;;;13.55;6.53;;;;;;;;;;5065077;28;20537;-70
2023/01/29 13:00:53;;;;;;;15.93;6.28;;;;;;;;;;5067811;28;20043;-69
2023/01/29 13:03:24;;;;;;;20.60;9.50;;;;;;;;;;5067437;28;20555;-70
2023/01/29 13:05:55;;;;;;;13.25;6.63;;;;;;;;;;5063835;28;20052;-69
2023/01/29 13:08:38;;;;;;;23.35;9.68;;;;;;;;;;5059624;28;20490;-70
2023/01/29 13:11:11;;;;;;;21.75;9.60;;;;;;;;;;5061001;28;20059;-70
2023/01/29 13:13:51;;;;;;;18.48;8.15;;;;;;;;;;5063718;28;20037;-70
2023/01/29 13:16:21;;;;;;;23.20;9.63;;;;;;;;;;5064112;28;20553;-70
2023/01/29 13:18:56;;;;;;;23.38;9.30;;;;;;;;;;5062476;28;20056;-69
2023/01/29 13:21:26;;;;;;;14.57;6.70;;;;;;;;;;5057268;28;20045;-70
2023/01/29 13:23:58;;;;;;;22.67;9.15;;;;;;;;;;5063674;28;20040;-70
2023/01/29 13:26:25;;;;;;;20.42;8.90;;;;;;;;;;5057679;28;20107;-70
2023/01/29 13:28:51;;;;;;;22.38;9.35;;;;;;;;;;5065316;28;20920;-70
2023/01/29 13:31:30;;;;;;;23.90;9.50;;;;;;;;;;5068262;28;20056;-70
2023/01/29 13:34:14;;;;;;;16.58;7.40;;;;;;;;;;5066016;28;20414;-70
2023/01/29 13:36:47;;;;;;;;;;;;;;;;;;5067492;28;20033;-70
2023/01/29 13:39:21;;;;;;;24.83;8.60;;;;;;;;;;5065327;28;20408;-70
2023/01/29 13:41:48;;;;;;;23.15;10.13;;;;;;;;;;5060273;28;20488;-70
2023/01/29 13:44:21;;;;;;;28.05;10.05;;;;;;;;;;5049294;28;20497;-70
2023/01/29 13:47:05;;;;;;;26.20;10.25;;;;;;;;;;5062506;28;20059;-70
2023/01/29 13:49:38;;;;;;;20.80;9.52;;;;;;;;;;5063027;28;20115;-70
2023/01/29 13:52:43;;;;;;;20.90;9.65;;;;;;;;;;5058111;28;20047;-70
2023/01/29 13:55:20;;;;;;;20.77;8.70;;;;;;;;;;5062035;28;20044;-70
2023/01/29 13:57:45;;;;;;;23.60;9.30;;;;;;;;;;5066555;28;20456;-70
2023/01/29 14:00:19;;;;;;;23.77;8.93;;;;;;;;;;5062511;28;20586;-70
2023/01/29 14:02:44;;;;;;;24.65;9.43;;;;;;;;;;5058015;28;20044;-69
2023/01/29 14:05:28;;;;;;;21.35;9.70;;;;;;;;;;5061885;28;20032;-69
2023/01/29 14:07:54;;;;;;;21.23;8.60;;;;;;;;;;5059031;28;20027;-69
2023/01/29 14:10:22;;;;;;;22.38;8.68;;;;;;;;;;5060956;28;20097;-69
2023/01/29 14:12:54;;;;;;;25.48;8.93;;;;;;;;;;5055864;28;20399;-69
2023/01/29 14:15:23;;;;;;;22.73;9.20;;;;;;;;;;5063286;28;20036;-69
2023/01/29 14:17:55;;;;;;;25.65;9.52;;;;;;;;;;5062378;28;20517;-69
2023/01/29 14:20:25;;;;;;;25.17;9.10;;;;;;;;;;5064706;28;20024;-69
2023/01/29 14:22:56;;;;;;;25.23;8.65;;;;;;;;;;5062949;28;20046;-69
2023/01/29 14:25:28;;;;;;;24.52;9.95;;;;;;;;;;5066253;28;20044;-69
2023/01/29 14:27:54;;;;;;;19.13;8.35;;;;;;;;;;5066211;28;20036;-69
2023/01/29 14:30:21;;;;;;;21.00;9.63;;;;;;;;;;5061582;28;20037;-69
2023/01/29 14:32:48;;;;;;;22.45;9.82;;;;;;;;;;5061911;28;20059;-70
2023/01/29 14:35:19;;;;;;;20.98;9.57;;;;;;;;;;5062225;28;20043;-69
2023/01/29 14:37:49;;;;;;;22.90;9.00;;;;;;;;;;5060023;28;20116;-69
2023/01/29 14:40:17;;;;;;;26.65;10.43;;;;;;;;;;5061652;28;20074;-69
2023/01/29 14:42:46;;;;;;;22.70;9.07;;;;;;;;;;5061023;28;20045;-70
2023/01/29 14:45:20;;;;;;;20.00;7.90;;;;;;;;;;5061666;28;20501;-69
2023/01/29 14:47:46;;;;;;;24.70;8.63;;;;;;;;;;5058183;28;20564;-69
2023/01/29 14:50:33;;;;;;;25.27;10.10;;;;;;;;;;5062560;28;20052;-69
2023/01/29 14:53:26;;;;;;;20.42;8.75;;;;;;;;;;5055232;28;20493;-70
2023/01/29 14:55:51;;;;;;;20.80;8.20;;;;;;;;;;5066610;28;20040;-70
2023/01/29 14:58:58;;;;;;;19.13;8.15;;;;;;;;;;5065690;28;20090;-69
2023/01/29 15:01:46;;;;;;;19.63;8.98;;;;;;;;;;5057304;28;20556;-69
2023/01/29 15:04:11;;;;;;;25.67;9.38;;;;;;;;;;5045792;28;20052;-69
2023/01/29 15:06:44;;;;;;;21.67;9.18;;;;;;;;;;5047017;28;20040;-70
2023/01/29 15:09:30;;;;;;;22.80;9.73;;;;;;;;;;5045936;28;20063;-70
2023/01/29 15:12:04;;;;;;;23.45;8.27;;;;;;;;;;5060119;28;20040;-69
2023/01/29 15:14:36;;;;;;;25.52;9.10;;;;;;;;;;5062613;28;20040;-69